sensor_id;sensor_type;location;lat;lon;timestamp;pressure;altitude;pressure_sealevel;temperature;humidity
46007;BME280;31738;50.188;8.524;2022-11-15T00:02:32;98488.94;;;10.71;94.66
46007;BME280;31738;50.188;8.524;2022-11-15T00:05:16;98489.44;;;10.73;94.56
46007;BME280;31738;50.188;8.524;2022-11-15T00:08:00;98487.81;;;10.77;94.86
46007;BME280;31738;50.188;8.524;2022-11-15T00:10:57;98487.50;;;10.84;94.52
46007;BME280;31738;50.188;8.524;2022-11-15T00:13:41;98480.75;;;10.86;94.47
46007;BME280;31738;50.188;8.524;2022-11-15T00:16:25;98476.97;;;10.87;94.35
46007;BME280;31738;50.188;8.524;2022-11-15T00:19:09;98473.72;;;10.90;94.15
46007;BME280;31738;50.188;8.524;2022-11-15T00:21:53;98481.22;;;10.93;94.20
46007;BME280;31738;50.188;8.524;2022-11-15T00:24:37;98478.25;;;10.95;94.09
46007;BME280;31738;50.188;8.524;2022-11-15T00:27:21;98481.47;;;10.97;94.00
46007;BME280;31738;50.188;8.524;2022-11-15T00:30:05;98475.81;;;10.98;94.07
46007;BME280;31738;50.188;8.524;2022-11-15T00:32:49;98478.22;;;11.00;93.78
46007;BME280;31738;50.188;8.524;2022-11-15T00:35:34;98472.56;;;11.01;93.71
46007;BME280;31738;50.188;8.524;2022-11-15T00:38:18;98472.03;;;10.99;93.65
46007;BME280;31738;50.188;8.524;2022-11-15T00:41:04;98462.41;;;10.98;93.43
46007;BME280;31738;50.188;8.524;2022-11-15T00:43:48;98457.03;;;10.98;93.55
46007;BME280;31738;50.188;8.524;2022-11-15T00:46:32;98465.63;;;11.00;93.71
46007;BME280;31738;50.188;8.524;2022-11-15T00:49:16;98460.25;;;11.00;93.80
46007;BME280;31738;50.188;8.524;2022-11-15T00:52:00;98464.81;;;11.00;93.36
46007;BME280;31738;50.188;8.524;2022-11-15T00:54:44;98464.53;;;11.01;93.56
46007;BME280;31738;50.188;8.524;2022-11-15T00:57:28;98463.44;;;11.02;93.55
46007;BME280;31738;50.188;8.524;2022-11-15T01:00:13;98463.66;;;11.06;93.65
46007;BME280;31738;50.188;8.524;2022-11-15T01:02:57;98462.88;;;11.05;93.48
46007;BME280;31738;50.188;8.524;2022-11-15T01:05:41;98453.75;;;11.06;93.48
46007;BME280;31738;50.188;8.524;2022-11-15T01:08:25;98458.06;;;11.02;93.55
46007;BME280;31738;50.188;8.524;2022-11-15T01:11:11;98451.09;;;11.01;93.48
46007;BME280;31738;50.188;8.524;2022-11-15T01:13:55;98448.19;;;10.98;93.30
46007;BME280;31738;50.188;8.524;2022-11-15T01:16:39;98450.06;;;10.97;93.40
46007;BME280;31738;50.188;8.524;2022-11-15T01:19:23;98458.63;;;10.99;93.46
46007;BME280;31738;50.188;8.524;2022-11-15T01:22:07;98453.03;;;10.96;93.36
46007;BME280;31738;50.188;8.524;2022-11-15T01:24:51;98455.44;;;10.97;93.27
46007;BME280;31738;50.188;8.524;2022-11-15T01:27:36;98444.72;;;10.97;93.38
46007;BME280;31738;50.188;8.524;2022-11-15T01:30:20;98443.91;;;10.97;93.11
46007;BME280;31738;50.188;8.524;2022-11-15T01:33:04;98447.97;;;10.94;93.10
46007;BME280;31738;50.188;8.524;2022-11-15T01:35:48;98445.56;;;10.93;93.01
46007;BME280;31738;50.188;8.524;2022-11-15T01:38:31;98454.94;;;10.90;92.93
46007;BME280;31738;50.188;8.524;2022-11-15T01:41:18;98444.78;;;10.87;93.10
46007;BME280;31738;50.188;8.524;2022-11-15T01:44:34;98447.53;;;10.82;93.06
46007;BME280;31738;50.188;8.524;2022-11-15T01:47:36;98431.97;;;10.79;93.02
46007;BME280;31738;50.188;8.524;2022-11-15T01:50:28;98439.50;;;10.82;93.27
46007;BME280;31738;50.188;8.524;2022-11-15T01:53:14;98437.84;;;10.86;93.11
46007;BME280;31738;50.188;8.524;2022-11-15T01:56:02;98424.94;;;10.88;93.44
46007;BME280;31738;50.188;8.524;2022-11-15T01:58:48;98438.84;;;10.90;93.40
46007;BME280;31738;50.188;8.524;2022-11-15T02:01:33;98418.72;;;10.93;93.37
46007;BME280;31738;50.188;8.524;2022-11-15T02:04:32;98411.47;;;10.93;93.04
46007;BME280;31738;50.188;8.524;2022-11-15T02:07:20;98403.41;;;10.93;93.40
46007;BME280;31738;50.188;8.524;2022-11-15T02:10:16;98413.56;;;10.96;93.08
46007;BME280;31738;50.188;8.524;2022-11-15T02:13:01;98405.63;;;10.86;93.25
46007;BME280;31738;50.188;8.524;2022-11-15T02:15:59;98397.88;;;10.85;93.09
46007;BME280;31738;50.188;8.524;2022-11-15T02:18:52;98403.47;;;10.88;93.34
46007;BME280;31738;50.188;8.524;2022-11-15T02:32:00;98390.56;;;10.90;93.51
46007;BME280;31738;50.188;8.524;2022-11-15T02:34:56;98388.41;;;10.92;93.41
46007;BME280;31738;50.188;8.524;2022-11-15T02:37:58;98391.59;;;10.94;93.61
46007;BME280;31738;50.188;8.524;2022-11-15T02:41:03;98395.06;;;10.95;93.39
46007;BME280;31738;50.188;8.524;2022-11-15T02:43:57;98385.97;;;10.96;93.44
46007;BME280;31738;50.188;8.524;2022-11-15T02:46:57;98389.41;;;10.96;93.36
46007;BME280;31738;50.188;8.524;2022-11-15T02:50:00;98388.34;;;10.97;93.69
46007;BME280;31738;50.188;8.524;2022-11-15T02:52:48;98378.13;;;10.99;93.22
46007;BME280;31738;50.188;8.524;2022-11-15T02:55:38;98375.97;;;11.01;93.24
46007;BME280;31738;50.188;8.524;2022-11-15T03:08:01;98375.16;;;11.01;93.55
46007;BME280;31738;50.188;8.524;2022-11-15T03:10:56;98381.44;;;10.91;93.69
46007;BME280;31738;50.188;8.524;2022-11-15T03:13:58;98369.66;;;10.87;93.52
46007;BME280;31738;50.188;8.524;2022-11-15T03:17:05;98365.84;;;10.93;93.53
46007;BME280;31738;50.188;8.524;2022-11-15T03:19:58;98351.84;;;10.96;93.57
46007;BME280;31738;50.188;8.524;2022-11-15T03:22:45;98359.84;;;11.01;93.46
46007;BME280;31738;50.188;8.524;2022-11-15T03:25:31;98362.50;;;11.06;93.21
46007;BME280;31738;50.188;8.524;2022-11-15T03:28:23;98367.28;;;11.09;93.05
46007;BME280;31738;50.188;8.524;2022-11-15T03:31:12;98361.34;;;11.12;93.04
46007;BME280;31738;50.188;8.524;2022-11-15T03:34:26;98365.91;;;11.12;92.96
46007;BME280;31738;50.188;8.524;2022-11-15T03:37:13;98371.50;;;11.15;93.21
46007;BME280;31738;50.188;8.524;2022-11-15T03:39:58;98372.53;;;11.19;92.97
46007;BME280;31738;50.188;8.524;2022-11-15T03:42:48;98370.09;;;11.23;92.88
46007;BME280;31738;50.188;8.524;2022-11-15T03:45:44;98369.00;;;11.24;92.80
46007;BME280;31738;50.188;8.524;2022-11-15T03:48:36;98370.31;;;11.26;92.60
46007;BME280;31738;50.188;8.524;2022-11-15T03:51:23;98363.84;;;11.27;92.62
46007;BME280;31738;50.188;8.524;2022-11-15T03:54:07;98377.22;;;11.32;92.29
46007;BME280;31738;50.188;8.524;2022-11-15T03:56:56;98366.97;;;11.34;92.25
46007;BME280;31738;50.188;8.524;2022-11-15T03:59:46;98372.88;;;11.36;92.06
46007;BME280;31738;50.188;8.524;2022-11-15T04:02:30;98372.09;;;11.36;91.69
46007;BME280;31738;50.188;8.524;2022-11-15T04:05:18;98376.09;;;11.38;91.90
46007;BME280;31738;50.188;8.524;2022-11-15T04:08:09;98375.28;;;11.38;92.04
46007;BME280;31738;50.188;8.524;2022-11-15T04:11:00;98378.75;;;11.38;92.00
46007;BME280;31738;50.188;8.524;2022-11-15T04:17:40;98380.41;;;11.34;91.94
46007;BME280;31738;50.188;8.524;2022-11-15T04:20:36;98381.22;;;11.35;91.74
46007;BME280;31738;50.188;8.524;2022-11-15T04:24:07;98384.19;;;11.33;91.71
46007;BME280;31738;50.188;8.524;2022-11-15T04:27:58;98377.81;;;11.29;91.62
46007;BME280;31738;50.188;8.524;2022-11-15T04:31:19;98375.59;;;11.31;91.45
46007;BME280;31738;50.188;8.524;2022-11-15T04:34:23;98369.75;;;11.29;91.66
46007;BME280;31738;50.188;8.524;2022-11-15T04:40:41;98362.19;;;11.31;91.64
46007;BME280;31738;50.188;8.524;2022-11-15T04:43:28;98363.22;;;11.35;91.55
46007;BME280;31738;50.188;8.524;2022-11-15T04:46:15;98353.78;;;11.38;91.53
46007;BME280;31738;50.188;8.524;2022-11-15T04:49:02;98349.22;;;11.38;91.35
46007;BME280;31738;50.188;8.524;2022-11-15T04:51:49;98352.44;;;11.40;91.26
46007;BME280;31738;50.188;8.524;2022-11-15T04:54:35;98338.44;;;11.43;91.79
46007;BME280;31738;50.188;8.524;2022-11-15T04:57:19;98346.50;;;11.43;91.56
46007;BME280;31738;50.188;8.524;2022-11-15T05:00:09;98345.97;;;11.41;91.37
46007;BME280;31738;50.188;8.524;2022-11-15T05:07:28;98342.38;;;11.27;91.72
46007;BME280;31738;50.188;8.524;2022-11-15T05:10:12;98352.03;;;11.28;91.72
46007;BME280;31738;50.188;8.524;2022-11-15T05:13:05;98346.06;;;11.31;91.64
46007;BME280;31738;50.188;8.524;2022-11-15T05:16:12;98343.69;;;11.30;91.32
46007;BME280;31738;50.188;8.524;2022-11-15T05:26:10;98338.97;;;11.22;91.76
46007;BME280;31738;50.188;8.524;2022-11-15T05:29:00;98327.66;;;11.25;92.09
46007;BME280;31738;50.188;8.524;2022-11-15T05:31:45;98330.84;;;11.27;91.92
46007;BME280;31738;50.188;8.524;2022-11-15T05:34:32;98330.25;;;11.30;91.86
46007;BME280;31738;50.188;8.524;2022-11-15T05:37:21;98324.09;;;11.29;91.91
46007;BME280;31738;50.188;8.524;2022-11-15T05:40:06;98320.03;;;11.32;92.02
46007;BME280;31738;50.188;8.524;2022-11-15T05:42:55;98318.44;;;11.31;91.97
46007;BME280;31738;50.188;8.524;2022-11-15T05:45:42;98312.78;;;11.32;91.88
46007;BME280;31738;50.188;8.524;2022-11-15T05:48:27;98311.75;;;11.28;91.95
46007;BME280;31738;50.188;8.524;2022-11-15T05:51:18;98316.53;;;11.31;92.39
46007;BME280;31738;50.188;8.524;2022-11-15T05:54:19;98314.94;;;11.30;92.29
46007;BME280;31738;50.188;8.524;2022-11-15T05:57:11;98323.00;;;11.30;91.89
46007;BME280;31738;50.188;8.524;2022-11-15T06:00:08;98317.63;;;11.30;92.09
46007;BME280;31738;50.188;8.524;2022-11-15T06:03:11;98314.44;;;11.28;91.98
46007;BME280;31738;50.188;8.524;2022-11-15T06:06:06;98318.50;;;11.26;92.24
46007;BME280;31738;50.188;8.524;2022-11-15T06:09:08;98312.03;;;11.27;91.91
46007;BME280;31738;50.188;8.524;2022-11-15T06:11:58;98316.06;;;11.29;92.00
46007;BME280;31738;50.188;8.524;2022-11-15T06:18:23;98331.41;;;11.24;92.10
46007;BME280;31738;50.188;8.524;2022-11-15T06:21:07;98340.28;;;11.24;92.20
46007;BME280;31738;50.188;8.524;2022-11-15T06:23:54;98335.41;;;11.26;91.75
46007;BME280;31738;50.188;8.524;2022-11-15T06:26:42;98341.28;;;11.28;91.90
46007;BME280;31738;50.188;8.524;2022-11-15T06:29:34;98342.66;;;11.26;91.59
46007;BME280;31738;50.188;8.524;2022-11-15T06:32:18;98339.41;;;11.29;92.01
46007;BME280;31738;50.188;8.524;2022-11-15T06:35:08;98334.03;;;11.29;91.71
46007;BME280;31738;50.188;8.524;2022-11-15T06:37:53;98340.22;;;11.29;92.08
46007;BME280;31738;50.188;8.524;2022-11-15T06:40:38;98336.44;;;11.30;91.81
46007;BME280;31738;50.188;8.524;2022-11-15T06:43:29;98340.22;;;11.29;92.06
46007;BME280;31738;50.188;8.524;2022-11-15T06:46:13;98330.25;;;11.30;91.85
46007;BME280;31738;50.188;8.524;2022-11-15T06:49:01;98326.50;;;11.31;91.72
46007;BME280;31738;50.188;8.524;2022-11-15T06:51:48;98328.91;;;11.32;92.07
46007;BME280;31738;50.188;8.524;2022-11-15T06:54:32;98326.22;;;11.32;92.31
46007;BME280;31738;50.188;8.524;2022-11-15T06:57:16;98335.03;;;11.33;92.25
46007;BME280;31738;50.188;8.524;2022-11-15T07:00:02;98331.59;;;11.32;92.46
46007;BME280;31738;50.188;8.524;2022-11-15T07:02:47;98340.13;;;11.34;92.44
46007;BME280;31738;50.188;8.524;2022-11-15T07:05:32;98329.38;;;11.34;92.51
46007;BME280;31738;50.188;8.524;2022-11-15T07:08:15;98331.00;;;11.35;92.60
46007;BME280;31738;50.188;8.524;2022-11-15T07:11:01;98317.00;;;11.38;92.56
46007;BME280;31738;50.188;8.524;2022-11-15T07:13:45;98321.28;;;11.39;92.51
46007;BME280;31738;50.188;8.524;2022-11-15T07:16:29;98325.59;;;11.40;92.51
46007;BME280;31738;50.188;8.524;2022-11-15T07:19:13;98324.19;;;11.43;92.80
46007;BME280;31738;50.188;8.524;2022-11-15T07:21:57;98322.81;;;11.45;92.86
46007;BME280;31738;50.188;8.524;2022-11-15T07:24:42;98319.84;;;11.47;92.96
46007;BME280;31738;50.188;8.524;2022-11-15T07:27:26;98320.34;;;11.49;93.25
46007;BME280;31738;50.188;8.524;2022-11-15T07:30:11;98317.38;;;11.50;93.03
46007;BME280;31738;50.188;8.524;2022-11-15T07:32:59;98310.91;;;11.51;93.20
46007;BME280;31738;50.188;8.524;2022-11-15T07:35:44;98315.69;;;11.54;93.01
46007;BME280;31738;50.188;8.524;2022-11-15T07:38:38;98318.91;;;11.56;92.97
46007;BME280;31738;50.188;8.524;2022-11-15T07:41:42;98317.31;;;11.55;93.39
46007;BME280;31738;50.188;8.524;2022-11-15T07:44:27;98313.69;;;11.46;93.24
46007;BME280;31738;50.188;8.524;2022-11-15T07:47:29;98323.91;;;11.44;93.08
46007;BME280;31738;50.188;8.524;2022-11-15T07:50:14;98318.47;;;11.49;93.13
46007;BME280;31738;50.188;8.524;2022-11-15T07:52:59;98324.03;;;11.53;92.80
46007;BME280;31738;50.188;8.524;2022-11-15T08:00:12;98323.19;;;11.57;92.45
46007;BME280;31738;50.188;8.524;2022-11-15T08:17:26;98326.06;;;11.84;91.25
46007;BME280;31738;50.188;8.524;2022-11-15T08:20:50;98324.44;;;11.83;91.42
46007;BME280;31738;50.188;8.524;2022-11-15T08:23:34;98329.47;;;11.90;91.42
46007;BME280;31738;50.188;8.524;2022-11-15T08:26:19;98324.84;;;11.95;91.38
46007;BME280;31738;50.188;8.524;2022-11-15T08:29:06;98329.03;;;12.01;91.46
46007;BME280;31738;50.188;8.524;2022-11-15T08:31:56;98334.31;;;12.06;91.42
46007;BME280;31738;50.188;8.524;2022-11-15T08:34:47;98340.72;;;12.11;90.86
46007;BME280;31738;50.188;8.524;2022-11-15T08:37:31;98345.50;;;12.14;90.45
46007;BME280;31738;50.188;8.524;2022-11-15T08:40:15;98346.00;;;12.16;90.62
46007;BME280;31738;50.188;8.524;2022-11-15T08:42:59;98345.22;;;12.15;90.78
46007;BME280;31738;50.188;8.524;2022-11-15T08:45:49;98344.13;;;12.16;90.42
46007;BME280;31738;50.188;8.524;2022-11-15T08:48:35;98344.94;;;12.17;90.11
46007;BME280;31738;50.188;8.524;2022-11-15T08:51:20;98342.75;;;12.19;89.77
46007;BME280;31738;50.188;8.524;2022-11-15T08:54:04;98340.56;;;12.21;90.00
46007;BME280;31738;50.188;8.524;2022-11-15T08:56:48;98338.88;;;12.25;89.64
46007;BME280;31738;50.188;8.524;2022-11-15T08:59:33;98341.56;;;12.25;89.61
46007;BME280;31738;50.188;8.524;2022-11-15T09:02:17;98353.69;;;12.22;90.00
46007;BME280;31738;50.188;8.524;2022-11-15T09:05:01;98345.94;;;12.21;89.82
46007;BME280;31738;50.188;8.524;2022-11-15T09:07:45;98343.97;;;12.26;90.06
46007;BME280;31738;50.188;8.524;2022-11-15T09:10:30;98341.19;;;12.31;90.03
46007;BME280;31738;50.188;8.524;2022-11-15T09:13:15;98345.19;;;12.34;89.96
46007;BME280;31738;50.188;8.524;2022-11-15T09:16:00;98342.69;;;12.37;90.06
46007;BME280;31738;50.188;8.524;2022-11-15T09:18:45;98340.81;;;12.38;89.93
46007;BME280;31738;50.188;8.524;2022-11-15T09:21:30;98339.22;;;12.37;90.08
46007;BME280;31738;50.188;8.524;2022-11-15T09:24:13;98337.59;;;12.36;90.37
46007;BME280;31738;50.188;8.524;2022-11-15T09:26:58;98339.81;;;12.34;90.51
46007;BME280;31738;50.188;8.524;2022-11-15T09:29:42;98334.13;;;12.35;90.89
46007;BME280;31738;50.188;8.524;2022-11-15T09:32:29;98335.44;;;12.38;91.05
46007;BME280;31738;50.188;8.524;2022-11-15T09:35:17;98320.88;;;12.39;91.50
46007;BME280;31738;50.188;8.524;2022-11-15T09:38:01;98318.13;;;12.44;91.17
46007;BME280;31738;50.188;8.524;2022-11-15T09:40:51;98307.78;;;12.51;91.43
46007;BME280;31738;50.188;8.524;2022-11-15T09:50:11;98303.03;;;12.61;91.25
46007;BME280;31738;50.188;8.524;2022-11-15T09:52:42;98314.56;;;12.62;91.51
46007;BME280;31738;50.188;8.524;2022-11-15T09:55:12;98313.50;;;12.63;91.32
46007;BME280;31738;50.188;8.524;2022-11-15T09:57:58;98313.97;;;12.65;91.39
46007;BME280;31738;50.188;8.524;2022-11-15T10:00:40;98298.84;;;12.69;91.23
46007;BME280;31738;50.188;8.524;2022-11-15T10:03:12;98300.44;;;12.70;91.16
46007;BME280;31738;50.188;8.524;2022-11-15T10:05:50;98300.34;;;12.75;90.80
46007;BME280;31738;50.188;8.524;2022-11-15T10:10:47;98292.38;;;12.83;90.85
46007;BME280;31738;50.188;8.524;2022-11-15T10:13:20;98288.16;;;12.91;90.89
46007;BME280;31738;50.188;8.524;2022-11-15T10:15:48;98283.31;;;12.93;90.86
46007;BME280;31738;50.188;8.524;2022-11-15T10:18:40;98276.50;;;12.95;90.99
46007;BME280;31738;50.188;8.524;2022-11-15T10:21:19;98276.50;;;12.95;90.83
46007;BME280;31738;50.188;8.524;2022-11-15T10:23:45;98282.69;;;12.96;90.68
46007;BME280;31738;50.188;8.524;2022-11-15T10:26:14;98273.75;;;13.00;90.85
46007;BME280;31738;50.188;8.524;2022-11-15T10:28:43;98282.53;;;13.06;90.81
46007;BME280;31738;50.188;8.524;2022-11-15T10:31:28;98272.16;;;13.13;90.86
46007;BME280;31738;50.188;8.524;2022-11-15T10:34:20;98270.94;;;13.19;90.76
46007;BME280;31738;50.188;8.524;2022-11-15T10:39:19;98266.53;;;13.23;90.86
46007;BME280;31738;50.188;8.524;2022-11-15T10:41:44;98268.97;;;13.24;90.82
46007;BME280;31738;50.188;8.524;2022-11-15T10:46:42;98248.81;;;13.22;90.92
46007;BME280;31738;50.188;8.524;2022-11-15T10:49:22;98251.41;;;13.27;90.99
46007;BME280;31738;50.188;8.524;2022-11-15T10:51:59;98241.44;;;13.27;91.06
46007;BME280;31738;50.188;8.524;2022-11-15T10:54:36;98238.44;;;13.29;91.21
46007;BME280;31738;50.188;8.524;2022-11-15T10:57:17;98241.91;;;13.29;90.81
46007;BME280;31738;50.188;8.524;2022-11-15T10:59:48;98229.84;;;13.27;91.03
46007;BME280;31738;50.188;8.524;2022-11-15T11:05:07;98208.81;;;13.29;91.51
46007;BME280;31738;50.188;8.524;2022-11-15T11:08:04;98208.31;;;13.27;91.22
46007;BME280;31738;50.188;8.524;2022-11-15T11:10:30;98205.34;;;13.15;91.79
46007;BME280;31738;50.188;8.524;2022-11-15T11:13:24;98200.94;;;13.19;91.74
46007;BME280;31738;50.188;8.524;2022-11-15T11:21:49;98196.16;;;13.16;91.51
46007;BME280;31738;50.188;8.524;2022-11-15T11:24:41;98166.44;;;13.21;91.47
46007;BME280;31738;50.188;8.524;2022-11-15T11:30:06;98181.38;;;13.27;90.92
46007;BME280;31738;50.188;8.524;2022-11-15T11:32:43;98172.28;;;13.23;90.99
46007;BME280;31738;50.188;8.524;2022-11-15T11:41:50;98170.47;;;13.32;90.95
46007;BME280;31738;50.188;8.524;2022-11-15T11:44:36;98177.34;;;13.38;90.94
46007;BME280;31738;50.188;8.524;2022-11-15T11:47:16;98176.75;;;13.41;91.16
46007;BME280;31738;50.188;8.524;2022-11-15T11:49:59;98172.94;;;13.42;90.43
46007;BME280;31738;50.188;8.524;2022-11-15T11:52:31;98172.72;;;13.38;90.63
46007;BME280;31738;50.188;8.524;2022-11-15T11:57:40;98159.97;;;13.44;90.78
46007;BME280;31738;50.188;8.524;2022-11-15T12:00:22;98160.13;;;13.47;90.64
46007;BME280;31738;50.188;8.524;2022-11-15T12:05:29;98166.22;;;13.53;90.63
46007;BME280;31738;50.188;8.524;2022-11-15T12:08:15;98154.31;;;13.54;90.78
46007;BME280;31738;50.188;8.524;2022-11-15T12:10:50;98156.72;;;13.55;90.63
46007;BME280;31738;50.188;8.524;2022-11-15T12:13:21;98142.47;;;13.55;90.56
46007;BME280;31738;50.188;8.524;2022-11-15T12:16:21;98142.94;;;13.57;90.34
46007;BME280;31738;50.188;8.524;2022-11-15T12:19:40;98141.97;;;13.53;90.70
46007;BME280;31738;50.188;8.524;2022-11-15T12:22:22;98139.16;;;13.58;90.29
46007;BME280;31738;50.188;8.524;2022-11-15T12:27:42;98130.78;;;13.68;90.33
46007;BME280;31738;50.188;8.524;2022-11-15T12:30:16;98134.28;;;13.68;90.50
46007;BME280;31738;50.188;8.524;2022-11-15T12:33:37;98125.22;;;13.64;90.49
46007;BME280;31738;50.188;8.524;2022-11-15T12:36:33;98126.34;;;13.63;90.72
46007;BME280;31738;50.188;8.524;2022-11-15T12:39:04;98129.53;;;13.65;90.71
46007;BME280;31738;50.188;8.524;2022-11-15T12:41:41;98121.28;;;13.70;90.56
46007;BME280;31738;50.188;8.524;2022-11-15T12:47:27;98110.81;;;13.69;90.71
46007;BME280;31738;50.188;8.524;2022-11-15T12:49:55;98113.50;;;13.69;90.66
46007;BME280;31738;50.188;8.524;2022-11-15T12:52:30;98109.72;;;13.70;90.56
46007;BME280;31738;50.188;8.524;2022-11-15T12:55:29;98104.97;;;13.67;90.43
46007;BME280;31738;50.188;8.524;2022-11-15T12:58:27;98091.78;;;13.65;90.69
46007;BME280;31738;50.188;8.524;2022-11-15T13:00:54;98091.94;;;13.69;90.87
46007;BME280;31738;50.188;8.524;2022-11-15T13:03:27;98082.16;;;13.73;90.57
46007;BME280;31738;50.188;8.524;2022-11-15T13:06:02;98082.94;;;13.73;90.42
46007;BME280;31738;50.188;8.524;2022-11-15T13:08:42;98083.75;;;13.74;90.42
46007;BME280;31738;50.188;8.524;2022-11-15T13:11:42;98082.16;;;13.73;90.26
46007;BME280;31738;50.188;8.524;2022-11-15T13:17:29;98071.00;;;13.66;90.55
46007;BME280;31738;50.188;8.524;2022-11-15T13:22:27;98069.00;;;13.71;90.80
46007;BME280;31738;50.188;8.524;2022-11-15T13:28:34;98053.59;;;13.72;91.10
46007;BME280;31738;50.188;8.524;2022-11-15T13:31:36;98050.78;;;13.77;91.00
46007;BME280;31738;50.188;8.524;2022-11-15T13:34:49;98038.88;;;13.78;91.01
46007;BME280;31738;50.188;8.524;2022-11-15T13:37:27;98037.00;;;13.78;91.11
46007;BME280;31738;50.188;8.524;2022-11-15T13:39:53;98043.19;;;13.79;90.93
46007;BME280;31738;50.188;8.524;2022-11-15T13:42:27;98038.28;;;13.81;91.19
46007;BME280;31738;50.188;8.524;2022-11-15T13:45:12;98027.19;;;13.83;90.61
46007;BME280;31738;50.188;8.524;2022-11-15T13:47:40;98035.28;;;13.83;91.07
46007;BME280;31738;50.188;8.524;2022-11-15T13:50:11;98041.94;;;13.85;90.82
46007;BME280;31738;50.188;8.524;2022-11-15T13:52:43;98028.47;;;13.85;90.67
46007;BME280;31738;50.188;8.524;2022-11-15T13:55:19;98026.25;;;13.87;90.55
46007;BME280;31738;50.188;8.524;2022-11-15T13:58:08;98021.94;;;13.86;90.74
46007;BME280;31738;50.188;8.524;2022-11-15T14:00:45;98021.94;;;13.86;90.89
46007;BME280;31738;50.188;8.524;2022-11-15T14:03:20;98023.25;;;13.89;90.93
46007;BME280;31738;50.188;8.524;2022-11-15T14:06:10;98017.53;;;13.90;90.64
46007;BME280;31738;50.188;8.524;2022-11-15T14:11:25;98010.53;;;13.89;90.59
46007;BME280;31738;50.188;8.524;2022-11-15T14:16:46;98007.06;;;13.89;90.31
46007;BME280;31738;50.188;8.524;2022-11-15T14:22:08;98008.97;;;13.88;90.03
46007;BME280;31738;50.188;8.524;2022-11-15T14:24:34;98002.63;;;13.84;90.58
46007;BME280;31738;50.188;8.524;2022-11-15T14:27:25;98003.25;;;13.81;89.94
46007;BME280;31738;50.188;8.524;2022-11-15T14:29:52;97986.09;;;13.77;90.26
46007;BME280;31738;50.188;8.524;2022-11-15T14:32:29;97975.31;;;13.77;90.01
46007;BME280;31738;50.188;8.524;2022-11-15T14:35:00;97979.13;;;13.76;90.05
46007;BME280;31738;50.188;8.524;2022-11-15T14:37:32;97979.13;;;13.76;90.24
46007;BME280;31738;50.188;8.524;2022-11-15T14:40:02;97971.66;;;13.73;90.09
46007;BME280;31738;50.188;8.524;2022-11-15T14:42:28;97975.13;;;13.73;90.30
46007;BME280;31738;50.188;8.524;2022-11-15T14:44:53;97967.84;;;13.74;90.27
46007;BME280;31738;50.188;8.524;2022-11-15T14:47:19;97975.94;;;13.74;90.30
46007;BME280;31738;50.188;8.524;2022-11-15T14:49:45;97969.72;;;13.73;90.36
46007;BME280;31738;50.188;8.524;2022-11-15T14:52:27;97963.06;;;13.71;90.42
46007;BME280;31738;50.188;8.524;2022-11-15T14:54:54;97959.91;;;13.69;90.35
46007;BME280;31738;50.188;8.524;2022-11-15T14:57:20;97951.81;;;13.69;90.46
46007;BME280;31738;50.188;8.524;2022-11-15T14:59:46;97947.53;;;13.68;90.91
46007;BME280;31738;50.188;8.524;2022-11-15T15:02:18;97930.88;;;13.66;90.76
46007;BME280;31738;50.188;8.524;2022-11-15T15:04:44;97932.31;;;13.63;90.98
46007;BME280;31738;50.188;8.524;2022-11-15T15:07:09;97923.72;;;13.61;91.13
46007;BME280;31738;50.188;8.524;2022-11-15T15:09:35;97926.72;;;13.60;90.96
46007;BME280;31738;50.188;8.524;2022-11-15T15:12:00;97920.56;;;13.59;90.93
46007;BME280;31738;50.188;8.524;2022-11-15T15:14:27;97905.81;;;13.57;91.23
46007;BME280;31738;50.188;8.524;2022-11-15T15:16:52;97915.00;;;13.56;91.45
46007;BME280;31738;50.188;8.524;2022-11-15T15:19:18;97916.13;;;13.55;91.35
46007;BME280;31738;50.188;8.524;2022-11-15T15:21:43;97907.06;;;13.51;91.46
46007;BME280;31738;50.188;8.524;2022-11-15T15:24:15;97910.38;;;13.48;91.23
46007;BME280;31738;50.188;8.524;2022-11-15T15:26:44;97899.72;;;13.43;91.37
46007;BME280;31738;50.188;8.524;2022-11-15T15:29:09;97894.97;;;13.40;91.72
46007;BME280;31738;50.188;8.524;2022-11-15T15:31:35;97883.25;;;13.36;91.62
46007;BME280;31738;50.188;8.524;2022-11-15T15:34:01;97885.44;;;13.34;92.15
46007;BME280;31738;50.188;8.524;2022-11-15T15:36:26;97879.09;;;13.30;92.00
46007;BME280;31738;50.188;8.524;2022-11-15T15:38:52;97882.72;;;13.25;91.87
46007;BME280;31738;50.188;8.524;2022-11-15T15:41:18;97878.75;;;13.23;92.50
46007;BME280;31738;50.188;8.524;2022-11-15T15:43:43;97869.41;;;13.20;92.40
46007;BME280;31738;50.188;8.524;2022-11-15T15:46:17;97872.41;;;13.19;92.24
46007;BME280;31738;50.188;8.524;2022-11-15T15:48:44;97865.44;;;13.18;92.38
46007;BME280;31738;50.188;8.524;2022-11-15T15:51:10;97866.84;;;13.15;92.46
46007;BME280;31738;50.188;8.524;2022-11-15T15:53:35;97864.44;;;13.14;92.48
46007;BME280;31738;50.188;8.524;2022-11-15T16:03:01;97836.28;;;12.89;93.23
46007;BME280;31738;50.188;8.524;2022-11-15T16:05:50;97844.66;;;12.88;92.76
46007;BME280;31738;50.188;8.524;2022-11-15T16:14:16;97833.66;;;12.67;93.53
46007;BME280;31738;50.188;8.524;2022-11-15T16:16:45;97832.25;;;12.70;93.59
46007;BME280;31738;50.188;8.524;2022-11-15T16:19:43;97839.22;;;12.71;93.69
46007;BME280;31738;50.188;8.524;2022-11-15T16:22:42;97820.22;;;12.67;93.46
46007;BME280;31738;50.188;8.524;2022-11-15T16:25:17;97823.66;;;12.68;93.79
46007;BME280;31738;50.188;8.524;2022-11-15T16:27:52;97823.66;;;12.68;93.64
46007;BME280;31738;50.188;8.524;2022-11-15T16:30:39;97829.38;;;12.66;93.50
46007;BME280;31738;50.188;8.524;2022-11-15T16:38:20;97817.13;;;12.52;93.99
46007;BME280;31738;50.188;8.524;2022-11-15T16:40:55;97806.03;;;12.53;94.05
46007;BME280;31738;50.188;8.524;2022-11-15T16:43:34;97812.22;;;12.54;93.80
46007;BME280;31738;50.188;8.524;2022-11-15T16:46:18;97805.75;;;12.55;94.08
46007;BME280;31738;50.188;8.524;2022-11-15T16:48:45;97806.22;;;12.57;94.28